sensor_id;sensor_type;location;lat;lon;timestamp;pressure;altitude;pressure_sealevel;temperature;humidity
8318;BME280;4196;48.926;8.964;2023-05-07T00:00:58;98938.78;;;10.59;100.00
8318;BME280;4196;48.926;8.964;2023-05-07T00:03:45;98933.47;;;10.86;100.00
8318;BME280;4196;48.926;8.964;2023-05-07T00:06:33;98912.63;;;11.00;100.00
8318;BME280;4196;48.926;8.964;2023-05-07T00:09:19;98934.19;;;11.08;100.00
8318;BME280;4196;48.926;8.964;2023-05-07T00:12:06;98969.63;;;11.05;100.00
8318;BME280;4196;48.926;8.964;2023-05-07T00:14:52;98956.72;;;10.93;100.00
8318;BME280;4196;48.926;8.964;2023-05-07T00:17:39;98943.81;;;10.85;100.00
8318;BME280;4196;48.926;8.964;2023-05-07T00:20:25;98949.84;;;10.85;100.00
8318;BME280;4196;48.926;8.964;2023-05-07T00:23:12;98957.66;;;10.81;100.00
8318;BME280;4196;48.926;8.964;2023-05-07T00:25:58;98943.03;;;10.68;100.00
8318;BME280;4196;48.926;8.964;2023-05-07T00:28:44;98921.53;;;10.52;100.00
8318;BME280;4196;48.926;8.964;2023-05-07T00:31:31;98946.47;;;10.79;100.00
8318;BME280;4196;48.926;8.964;2023-05-07T00:34:18;98942.06;;;10.92;100.00
8318;BME280;4196;48.926;8.964;2023-05-07T00:37:05;98930.97;;;10.65;100.00
8318;BME280;4196;48.926;8.964;2023-05-07T00:39:53;98941.38;;;10.56;100.00
8318;BME280;4196;48.926;8.964;2023-05-07T00:42:39;98914.75;;;10.26;100.00
8318;BME280;4196;48.926;8.964;2023-05-07T00:45:27;98938.88;;;10.34;100.00
8318;BME280;4196;48.926;8.964;2023-05-07T00:48:15;98925.09;;;10.17;100.00
8318;BME280;4196;48.926;8.964;2023-05-07T00:51:02;98907.06;;;10.02;100.00
8318;BME280;4196;48.926;8.964;2023-05-07T00:53:49;98918.22;;;10.11;100.00
8318;BME280;4196;48.926;8.964;2023-05-07T00:56:36;98895.00;;;9.90;100.00
8318;BME280;4196;48.926;8.964;2023-05-07T00:59:22;98940.63;;;10.17;100.00
8318;BME280;4196;48.926;8.964;2023-05-07T01:02:08;98896.72;;;9.89;100.00
8318;BME280;4196;48.926;8.964;2023-05-07T01:04:55;98932.00;;;10.18;100.00
8318;BME280;4196;48.926;8.964;2023-05-07T01:07:43;98921.69;;;10.03;100.00
8318;BME280;4196;48.926;8.964;2023-05-07T01:10:30;98931.16;;;10.14;100.00
8318;BME280;4196;48.926;8.964;2023-05-07T01:13:18;98910.38;;;10.37;100.00
8318;BME280;4196;48.926;8.964;2023-05-07T01:16:06;98917.25;;;10.45;100.00
8318;BME280;4196;48.926;8.964;2023-05-07T01:18:52;98913.88;;;10.29;100.00
8318;BME280;4196;48.926;8.964;2023-05-07T01:21:45;98900.94;;;10.18;100.00
8318;BME280;4196;48.926;8.964;2023-05-07T01:24:32;98909.63;;;10.02;100.00
8318;BME280;4196;48.926;8.964;2023-05-07T01:27:20;98935.47;;;10.09;100.00
8318;BME280;4196;48.926;8.964;2023-05-07T01:30:09;98909.66;;;9.89;100.00
8318;BME280;4196;48.926;8.964;2023-05-07T01:32:57;98926.03;;;9.96;100.00
8318;BME280;4196;48.926;8.964;2023-05-07T01:35:46;98907.94;;;9.85;100.00
8318;BME280;4196;48.926;8.964;2023-05-07T01:38:35;98901.00;;;10.06;100.00
8318;BME280;4196;48.926;8.964;2023-05-07T01:41:23;98931.09;;;10.39;100.00
8318;BME280;4196;48.926;8.964;2023-05-07T01:44:12;98907.00;;;10.14;100.00
8318;BME280;4196;48.926;8.964;2023-05-07T01:46:59;98895.84;;;9.93;100.00
8318;BME280;4196;48.926;8.964;2023-05-07T01:49:47;98934.63;;;10.07;100.00
8318;BME280;4196;48.926;8.964;2023-05-07T01:52:34;98921.69;;;10.03;100.00
8318;BME280;4196;48.926;8.964;2023-05-07T01:55:21;98861.47;;;9.59;100.00
8318;BME280;4196;48.926;8.964;2023-05-07T01:58:08;98925.16;;;9.96;100.00
8318;BME280;4196;48.926;8.964;2023-05-07T02:00:54;98908.78;;;9.83;100.00
8318;BME280;4196;48.926;8.964;2023-05-07T02:03:40;98913.13;;;9.82;100.00
8318;BME280;4196;48.926;8.964;2023-05-07T02:06:35;98938.06;;;10.00;100.00
8318;BME280;4196;48.926;8.964;2023-05-07T02:09:24;98927.72;;;10.03;100.00
8318;BME280;4196;48.926;8.964;2023-05-07T02:12:11;98924.28;;;10.09;100.00
8318;BME280;4196;48.926;8.964;2023-05-07T02:14:58;98906.19;;;9.97;100.00
8318;BME280;4196;48.926;8.964;2023-05-07T02:18:03;98916.53;;;10.06;100.00
8318;BME280;4196;48.926;8.964;2023-05-07T02:20:50;98932.84;;;10.19;100.00
8318;BME280;4196;48.926;8.964;2023-05-07T02:23:37;98938.88;;;10.16;100.00
8318;BME280;4196;48.926;8.964;2023-05-07T02:26:23;98906.22;;;9.87;100.00
8318;BME280;4196;48.926;8.964;2023-05-07T02:29:10;98940.69;;;9.99;100.00
8318;BME280;4196;48.926;8.964;2023-05-07T02:31:58;98914.00;;;9.80;100.00
8318;BME280;4196;48.926;8.964;2023-05-07T02:34:45;98814.13;;;9.16;100.00
8318;BME280;4196;48.926;8.964;2023-05-07T02:37:31;98936.38;;;9.90;100.00
8318;BME280;4196;48.926;8.964;2023-05-07T02:40:18;98928.59;;;9.98;100.00
8318;BME280;4196;48.926;8.964;2023-05-07T02:43:05;98914.84;;;9.71;100.00
8318;BME280;4196;48.926;8.964;2023-05-07T02:46:07;98896.81;;;9.47;100.00
8318;BME280;4196;48.926;8.964;2023-05-07T02:48:58;98908.84;;;9.52;100.00
8318;BME280;4196;48.926;8.964;2023-05-07T02:51:45;98926.97;;;9.48;100.00
8318;BME280;4196;48.926;8.964;2023-05-07T02:54:37;98914.03;;;9.44;100.00
8318;BME280;4196;48.926;8.964;2023-05-07T02:57:24;98893.34;;;9.52;100.00
8318;BME280;4196;48.926;8.964;2023-05-07T03:00:12;98890.75;;;9.38;100.00
8318;BME280;4196;48.926;8.964;2023-05-07T03:03:02;98912.31;;;9.28;100.00
8318;BME280;4196;48.926;8.964;2023-05-07T03:05:49;98908.00;;;9.12;100.00
8318;BME280;4196;48.926;8.964;2023-05-07T03:08:35;98888.19;;;8.99;100.00
8318;BME280;4196;48.926;8.964;2023-05-07T03:11:22;98913.16;;;9.12;100.00
8318;BME280;4196;48.926;8.964;2023-05-07T03:14:09;98914.91;;;9.14;100.00
8318;BME280;4196;48.926;8.964;2023-05-07T03:16:56;98905.41;;;9.07;100.00
8318;BME280;4196;48.926;8.964;2023-05-07T03:19:42;98898.53;;;9.08;100.00
8318;BME280;4196;48.926;8.964;2023-05-07T03:22:29;98909.72;;;9.11;100.00
8318;BME280;4196;48.926;8.964;2023-05-07T03:25:15;98905.41;;;9.09;100.00
8318;BME280;4196;48.926;8.964;2023-05-07T03:28:01;98872.69;;;8.89;100.00
8318;BME280;4196;48.926;8.964;2023-05-07T03:30:56;98904.53;;;9.16;100.00
8318;BME280;4196;48.926;8.964;2023-05-07T03:33:55;98906.28;;;9.48;100.00
8318;BME280;4196;48.926;8.964;2023-05-07T03:36:42;98898.50;;;9.52;100.00
8318;BME280;4196;48.926;8.964;2023-05-07T03:39:31;98908.00;;;9.38;100.00
8318;BME280;4196;48.926;8.964;2023-05-07T03:42:19;98878.72;;;8.98;100.00
8318;BME280;4196;48.926;8.964;2023-05-07T03:45:08;98863.22;;;8.82;100.00
8318;BME280;4196;48.926;8.964;2023-05-07T03:47:57;98904.56;;;9.07;100.00
8318;BME280;4196;48.926;8.964;2023-05-07T03:50:44;98909.72;;;9.02;100.00
8318;BME280;4196;48.926;8.964;2023-05-07T03:53:30;98894.19;;;8.82;100.00
8318;BME280;4196;48.926;8.964;2023-05-07T03:56:17;98915.72;;;8.86;100.00
8318;BME280;4196;48.926;8.964;2023-05-07T03:59:05;98888.13;;;8.73;100.00
8318;BME280;4196;48.926;8.964;2023-05-07T04:01:52;98892.44;;;8.66;100.00
8318;BME280;4196;48.926;8.964;2023-05-07T04:04:42;98894.16;;;8.64;100.00
8318;BME280;4196;48.926;8.964;2023-05-07T04:07:28;98897.63;;;8.69;100.00
8318;BME280;4196;48.926;8.964;2023-05-07T04:10:15;98924.34;;;8.88;100.00
8318;BME280;4196;48.926;8.964;2023-05-07T04:13:04;98923.47;;;8.92;100.00
8318;BME280;4196;48.926;8.964;2023-05-07T04:15:52;98918.31;;;9.01;100.00
8318;BME280;4196;48.926;8.964;2023-05-07T04:18:39;98879.56;;;8.83;100.00
8318;BME280;4196;48.926;8.964;2023-05-07T04:21:26;98912.28;;;9.13;100.00
8318;BME280;4196;48.926;8.964;2023-05-07T04:24:13;98919.22;;;9.25;100.00
8318;BME280;4196;48.926;8.964;2023-05-07T04:27:00;98934.72;;;9.54;100.00
8318;BME280;4196;48.926;8.964;2023-05-07T04:29:46;98916.63;;;9.44;100.00
8318;BME280;4196;48.926;8.964;2023-05-07T04:32:35;98939.88;;;9.63;100.00
8318;BME280;4196;48.926;8.964;2023-05-07T04:35:23;98937.28;;;9.60;100.00
8318;BME280;4196;48.926;8.964;2023-05-07T04:38:10;98921.75;;;9.57;100.00
8318;BME280;4196;48.926;8.964;2023-05-07T04:41:02;98945.88;;;9.83;100.00
8318;BME280;4196;48.926;8.964;2023-05-07T04:43:49;98938.13;;;9.85;100.00
8318;BME280;4196;48.926;8.964;2023-05-07T04:46:38;98938.94;;;9.98;100.00
8318;BME280;4196;48.926;8.964;2023-05-07T04:49:25;98954.44;;;10.28;100.00
8318;BME280;4196;48.926;8.964;2023-05-07T04:52:13;98921.66;;;10.21;100.00
8318;BME280;4196;48.926;8.964;2023-05-07T04:55:00;98940.59;;;10.38;100.00
8318;BME280;4196;48.926;8.964;2023-05-07T04:57:53;98934.50;;;10.52;100.00
8318;BME280;4196;48.926;8.964;2023-05-07T05:00:40;98951.53;;;10.96;100.00
8318;BME280;4196;48.926;8.964;2023-05-07T05:03:26;98929.91;;;11.03;100.00
8318;BME280;4196;48.926;8.964;2023-05-07T05:06:13;98931.53;;;11.16;100.00
8318;BME280;4196;48.926;8.964;2023-05-07T05:09:00;98943.59;;;11.20;100.00
8318;BME280;4196;48.926;8.964;2023-05-07T05:11:49;98954.78;;;11.25;100.00
8318;BME280;4196;48.926;8.964;2023-05-07T05:14:36;98941.91;;;11.16;100.00
8318;BME280;4196;48.926;8.964;2023-05-07T05:17:23;98965.91;;;11.40;100.00
8318;BME280;4196;48.926;8.964;2023-05-07T05:20:09;98968.53;;;11.36;100.00
8318;BME280;4196;48.926;8.964;2023-05-07T05:22:59;98963.22;;;11.52;100.00
8318;BME280;4196;48.926;8.964;2023-05-07T05:25:46;98978.50;;;11.90;100.00
8318;BME280;4196;48.926;8.964;2023-05-07T05:28:33;98975.16;;;12.59;100.00
8318;BME280;4196;48.926;8.964;2023-05-07T05:31:21;98942.28;;;12.58;100.00
8318;BME280;4196;48.926;8.964;2023-05-07T05:34:09;98966.63;;;13.14;100.00
8318;BME280;4196;48.926;8.964;2023-05-07T05:36:56;98958.50;;;13.39;100.00
8318;BME280;4196;48.926;8.964;2023-05-07T05:39:43;98981.34;;;13.72;100.00
8318;BME280;4196;48.926;8.964;2023-05-07T05:42:30;98956.13;;;13.77;100.00
8318;BME280;4196;48.926;8.964;2023-05-07T05:45:16;98984.59;;;13.88;100.00
8318;BME280;4196;48.926;8.964;2023-05-07T05:48:04;98988.09;;;13.86;100.00
8318;BME280;4196;48.926;8.964;2023-05-07T05:50:51;98973.09;;;13.98;100.00
8318;BME280;4196;48.926;8.964;2023-05-07T05:53:39;98967.03;;;13.98;100.00
8318;BME280;4196;48.926;8.964;2023-05-07T05:56:25;98953.53;;;13.77;100.00
8318;BME280;4196;48.926;8.964;2023-05-07T05:59:12;98920.50;;;13.80;100.00
8318;BME280;4196;48.926;8.964;2023-05-07T06:01:58;98949.31;;;14.17;100.00
8318;BME280;4196;48.926;8.964;2023-05-07T06:04:45;98962.84;;;14.37;100.00
8318;BME280;4196;48.926;8.964;2023-05-07T06:07:36;98983.09;;;14.68;100.00
8318;BME280;4196;48.926;8.964;2023-05-07T06:10:23;98993.13;;;14.86;100.00
8318;BME280;4196;48.926;8.964;2023-05-07T06:13:10;98981.34;;;15.10;100.00
8318;BME280;4196;48.926;8.964;2023-05-07T06:15:57;98985.66;;;15.50;100.00
8318;BME280;4196;48.926;8.964;2023-05-07T06:18:43;98959.84;;;15.74;100.00
8318;BME280;4196;48.926;8.964;2023-05-07T06:21:33;98975.72;;;16.00;100.00
8318;BME280;4196;48.926;8.964;2023-05-07T06:24:20;98971.53;;;15.93;100.00
8318;BME280;4196;48.926;8.964;2023-05-07T06:27:08;98973.56;;;15.82;100.00
8318;BME280;4196;48.926;8.964;2023-05-07T06:29:54;98987.47;;;15.84;100.00
8318;BME280;4196;48.926;8.964;2023-05-07T06:32:41;98949.38;;;15.75;100.00
8318;BME280;4196;48.926;8.964;2023-05-07T06:35:28;98958.16;;;15.73;100.00
8318;BME280;4196;48.926;8.964;2023-05-07T06:38:15;98969.25;;;15.81;100.00
8318;BME280;4196;48.926;8.964;2023-05-07T06:41:03;98982.25;;;16.16;100.00
8318;BME280;4196;48.926;8.964;2023-05-07T06:43:49;98978.19;;;16.39;100.00
8318;BME280;4196;48.926;8.964;2023-05-07T06:46:58;98962.94;;;16.84;99.33
8318;BME280;4196;48.926;8.964;2023-05-07T06:49:45;98980.75;;;17.31;91.54
8318;BME280;4196;48.926;8.964;2023-05-07T06:52:35;98952.97;;;17.53;87.09
8318;BME280;4196;48.926;8.964;2023-05-07T06:55:24;98980.59;;;17.90;84.30
8318;BME280;4196;48.926;8.964;2023-05-07T06:58:11;98950.38;;;17.80;85.81
8318;BME280;4196;48.926;8.964;2023-05-07T07:00:58;98962.31;;;18.14;87.71
8318;BME280;4196;48.926;8.964;2023-05-07T07:03:44;98978.97;;;18.36;86.72
8318;BME280;4196;48.926;8.964;2023-05-07T07:06:31;98972.88;;;18.61;82.18
8318;BME280;4196;48.926;8.964;2023-05-07T07:09:19;98938.34;;;18.48;82.44
8318;BME280;4196;48.926;8.964;2023-05-07T07:12:10;98967.50;;;18.64;77.32
8318;BME280;4196;48.926;8.964;2023-05-07T07:14:58;98952.31;;;18.73;79.57
8318;BME280;4196;48.926;8.964;2023-05-07T07:17:46;98943.81;;;18.90;79.88
8318;BME280;4196;48.926;8.964;2023-05-07T07:20:34;98968.47;;;19.08;76.10
8318;BME280;4196;48.926;8.964;2023-05-07T07:23:21;98971.25;;;19.03;74.23
8318;BME280;4196;48.926;8.964;2023-05-07T07:26:08;98943.28;;;18.80;73.84
8318;BME280;4196;48.926;8.964;2023-05-07T07:28:54;98965.13;;;18.81;77.11
8318;BME280;4196;48.926;8.964;2023-05-07T07:31:42;98957.84;;;18.89;77.08
8318;BME280;4196;48.926;8.964;2023-05-07T07:34:29;98953.81;;;19.02;73.98
8318;BME280;4196;48.926;8.964;2023-05-07T07:37:16;98961.13;;;18.94;76.19
8318;BME280;4196;48.926;8.964;2023-05-07T07:40:03;98984.09;;;18.89;74.20
8318;BME280;4196;48.926;8.964;2023-05-07T07:42:53;98982.00;;;18.74;76.50
8318;BME280;4196;48.926;8.964;2023-05-07T07:45:40;98977.16;;;18.63;77.27
8318;BME280;4196;48.926;8.964;2023-05-07T07:48:27;98968.03;;;18.48;80.54
8318;BME280;4196;48.926;8.964;2023-05-07T07:51:15;98978.44;;;18.51;80.98
8318;BME280;4196;48.926;8.964;2023-05-07T07:54:02;98976.28;;;18.63;79.78
8318;BME280;4196;48.926;8.964;2023-05-07T07:56:51;98945.47;;;18.44;80.29
8318;BME280;4196;48.926;8.964;2023-05-07T07:59:38;98979.53;;;18.46;81.12
8318;BME280;4196;48.926;8.964;2023-05-07T08:02:26;98971.41;;;18.52;80.96
8318;BME280;4196;48.926;8.964;2023-05-07T08:05:13;98957.91;;;18.39;80.64
8318;BME280;4196;48.926;8.964;2023-05-07T08:08:02;98965.28;;;18.53;77.84
8318;BME280;4196;48.926;8.964;2023-05-07T08:10:52;98976.28;;;18.63;76.08
8318;BME280;4196;48.926;8.964;2023-05-07T08:13:46;98982.59;;;18.57;76.87
8318;BME280;4196;48.926;8.964;2023-05-07T08:16:32;98982.47;;;18.85;76.10
8318;BME280;4196;48.926;8.964;2023-05-07T08:19:20;98975.06;;;18.73;77.08
8318;BME280;4196;48.926;8.964;2023-05-07T08:22:09;98956.75;;;18.71;77.89
8318;BME280;4196;48.926;8.964;2023-05-07T08:24:55;98955.78;;;18.97;75.10
8318;BME280;4196;48.926;8.964;2023-05-07T08:27:42;98961.03;;;18.97;75.29
8318;BME280;4196;48.926;8.964;2023-05-07T08:30:29;98972.63;;;19.14;73.12
8318;BME280;4196;48.926;8.964;2023-05-07T08:33:15;98973.84;;;19.05;75.27
8318;BME280;4196;48.926;8.964;2023-05-07T08:36:02;98951.13;;;18.82;78.54
8318;BME280;4196;48.926;8.964;2023-05-07T08:38:49;98963.28;;;19.06;73.34
8318;BME280;4196;48.926;8.964;2023-05-07T08:41:36;98944.97;;;19.05;74.21
8318;BME280;4196;48.926;8.964;2023-05-07T08:44:25;98931.63;;;19.11;75.32
8318;BME280;4196;48.926;8.964;2023-05-07T08:47:14;98968.84;;;19.43;74.47
8318;BME280;4196;48.926;8.964;2023-05-07T08:50:01;98959.69;;;19.53;74.96
8318;BME280;4196;48.926;8.964;2023-05-07T08:52:48;98963.72;;;19.62;73.39
8318;BME280;4196;48.926;8.964;2023-05-07T08:55:36;98969.97;;;19.81;72.03
8318;BME280;4196;48.926;8.964;2023-05-07T08:58:23;98964.31;;;19.90;73.56
8318;BME280;4196;48.926;8.964;2023-05-07T09:01:14;98967.94;;;20.08;71.05
8318;BME280;4196;48.926;8.964;2023-05-07T09:04:04;98988.94;;;20.49;70.72
8318;BME280;4196;48.926;8.964;2023-05-07T09:06:52;98975.47;;;20.57;68.31
8318;BME280;4196;48.926;8.964;2023-05-07T09:09:41;98973.84;;;20.34;67.54
8318;BME280;4196;48.926;8.964;2023-05-07T09:12:27;98979.31;;;20.49;67.56
8318;BME280;4196;48.926;8.964;2023-05-07T09:15:14;98973.91;;;20.53;66.96
8318;BME280;4196;48.926;8.964;2023-05-07T09:18:01;98935.63;;;20.45;67.89
8318;BME280;4196;48.926;8.964;2023-05-07T09:20:48;98951.53;;;20.42;68.92
8318;BME280;4196;48.926;8.964;2023-05-07T09:23:38;98939.44;;;20.38;69.75
8318;BME280;4196;48.926;8.964;2023-05-07T09:26:25;98921.28;;;20.32;71.77
8318;BME280;4196;48.926;8.964;2023-05-07T09:29:11;98929.38;;;20.48;68.88
8318;BME280;4196;48.926;8.964;2023-05-07T09:31:58;98949.56;;;20.47;70.90
8318;BME280;4196;48.926;8.964;2023-05-07T09:34:45;98930.88;;;20.54;71.84
8318;BME280;4196;48.926;8.964;2023-05-07T09:37:35;98934.94;;;20.61;69.82
8318;BME280;4196;48.926;8.964;2023-05-07T09:40:26;98960.00;;;20.88;70.36
8318;BME280;4196;48.926;8.964;2023-05-07T09:43:14;98939.31;;;20.81;70.41
8318;BME280;4196;48.926;8.964;2023-05-07T09:46:14;98957.88;;;20.96;69.08
8318;BME280;4196;48.926;8.964;2023-05-07T09:49:07;98960.41;;;20.98;68.39
8318;BME280;4196;48.926;8.964;2023-05-07T09:52:02;98952.59;;;21.15;68.54
8318;BME280;4196;48.926;8.964;2023-05-07T09:54:52;98935.97;;;20.96;67.85
8318;BME280;4196;48.926;8.964;2023-05-07T09:57:43;98952.81;;;21.11;68.98
8318;BME280;4196;48.926;8.964;2023-05-07T10:00:31;98930.97;;;21.09;67.81
8318;BME280;4196;48.926;8.964;2023-05-07T10:03:27;98935.66;;;21.21;67.38
8318;BME280;4196;48.926;8.964;2023-05-07T10:06:20;98945.50;;;21.17;66.55
8318;BME280;4196;48.926;8.964;2023-05-07T10:09:08;98931.63;;;21.31;67.78
8318;BME280;4196;48.926;8.964;2023-05-07T10:11:56;98932.47;;;21.33;66.71
8318;BME280;4196;48.926;8.964;2023-05-07T10:14:43;98887.03;;;20.92;68.08
8318;BME280;4196;48.926;8.964;2023-05-07T10:17:31;98928.38;;;21.26;67.52
8318;BME280;4196;48.926;8.964;2023-05-07T10:20:18;98913.19;;;21.31;66.34
8318;BME280;4196;48.926;8.964;2023-05-07T10:23:06;98896.16;;;21.21;66.52
8318;BME280;4196;48.926;8.964;2023-05-07T10:26:04;98900.88;;;21.51;65.44
8318;BME280;4196;48.926;8.964;2023-05-07T10:28:58;98927.22;;;21.51;67.08
8318;BME280;4196;48.926;8.964;2023-05-07T10:32:04;98921.06;;;21.50;67.17
8318;BME280;4196;48.926;8.964;2023-05-07T10:34:58;98890.16;;;21.36;66.17
8318;BME280;4196;48.926;8.964;2023-05-07T10:37:46;98912.28;;;21.51;65.63
8318;BME280;4196;48.926;8.964;2023-05-07T10:40:34;98918.69;;;21.63;65.33
8318;BME280;4196;48.926;8.964;2023-05-07T10:43:21;98914.97;;;21.50;65.33
8318;BME280;4196;48.926;8.964;2023-05-07T10:46:14;98928.94;;;21.52;65.83
8318;BME280;4196;48.926;8.964;2023-05-07T10:49:07;98925.97;;;21.75;64.91
8318;BME280;4196;48.926;8.964;2023-05-07T10:52:16;98913.34;;;21.64;64.23
8318;BME280;4196;48.926;8.964;2023-05-07T10:55:20;98900.19;;;21.47;63.20
8318;BME280;4196;48.926;8.964;2023-05-07T10:58:28;98914.03;;;21.68;62.86
8318;BME280;4196;48.926;8.964;2023-05-07T11:01:50;98914.66;;;21.90;62.60
8318;BME280;4196;48.926;8.964;2023-05-07T11:04:43;98891.41;;;21.81;62.72
8318;BME280;4196;48.926;8.964;2023-05-07T11:07:40;98893.19;;;21.81;61.15
8318;BME280;4196;48.926;8.964;2023-05-07T11:13:48;98910.63;;;22.18;60.21
8318;BME280;4196;48.926;8.964;2023-05-07T11:17:02;98915.13;;;22.16;60.51
8318;BME280;4196;48.926;8.964;2023-05-07T11:19:55;98910.13;;;22.27;58.84
8318;BME280;4196;48.926;8.964;2023-05-07T11:22:50;98913.88;;;22.06;58.98
8318;BME280;4196;48.926;8.964;2023-05-07T11:25:50;98907.44;;;22.11;59.07
8318;BME280;4196;48.926;8.964;2023-05-07T11:28:42;98903.09;;;22.28;60.84
8318;BME280;4196;48.926;8.964;2023-05-07T11:31:30;98906.63;;;22.44;58.75
8318;BME280;4196;48.926;8.964;2023-05-07T11:34:24;98904.78;;;22.78;59.69
8318;BME280;4196;48.926;8.964;2023-05-07T11:37:17;98870.97;;;22.84;57.84
8318;BME280;4196;48.926;8.964;2023-05-07T11:40:11;98869.63;;;22.93;57.61
8318;BME280;4196;48.926;8.964;2023-05-07T11:43:10;98897.41;;;23.16;55.52
8318;BME280;4196;48.926;8.964;2023-05-07T11:46:11;98876.28;;;23.16;56.69
8318;BME280;4196;48.926;8.964;2023-05-07T11:48:58;98874.66;;;23.44;54.86
8318;BME280;4196;48.926;8.964;2023-05-07T11:51:46;98889.69;;;23.43;55.67
8318;BME280;4196;48.926;8.964;2023-05-07T11:54:37;98892.03;;;23.48;56.00
8318;BME280;4196;48.926;8.964;2023-05-07T11:57:24;98881.31;;;23.51;55.81
8318;BME280;4196;48.926;8.964;2023-05-07T12:00:11;98892.00;;;23.79;53.96
8318;BME280;4196;48.926;8.964;2023-05-07T12:03:03;98853.97;;;23.66;53.82
8318;BME280;4196;48.926;8.964;2023-05-07T12:05:50;98867.28;;;24.09;54.52
8318;BME280;4196;48.926;8.964;2023-05-07T12:08:37;98898.28;;;24.35;52.36
8318;BME280;4196;48.926;8.964;2023-05-07T12:11:24;98877.03;;;24.51;52.91
8318;BME280;4196;48.926;8.964;2023-05-07T12:14:11;98883.34;;;24.63;50.16
8318;BME280;4196;48.926;8.964;2023-05-07T12:17:01;98885.13;;;24.77;49.17
8318;BME280;4196;48.926;8.964;2023-05-07T12:19:49;98893.94;;;24.63;49.18
8318;BME280;4196;48.926;8.964;2023-05-07T12:22:36;98883.47;;;24.89;49.57
8318;BME280;4196;48.926;8.964;2023-05-07T12:25:23;98873.31;;;24.82;49.06
8318;BME280;4196;48.926;8.964;2023-05-07T12:28:12;98839.09;;;24.92;50.94
8318;BME280;4196;48.926;8.964;2023-05-07T12:30:59;98878.34;;;25.54;49.22
8318;BME280;4196;48.926;8.964;2023-05-07T12:33:47;98838.19;;;24.93;48.88
8318;BME280;4196;48.926;8.964;2023-05-07T12:36:40;98849.69;;;24.65;49.64
8318;BME280;4196;48.926;8.964;2023-05-07T12:39:26;98860.59;;;24.88;51.59
8318;BME280;4196;48.926;8.964;2023-05-07T12:42:19;98874.59;;;24.90;49.04
8318;BME280;4196;48.926;8.964;2023-05-07T12:45:10;98879.59;;;24.94;53.11
8318;BME280;4196;48.926;8.964;2023-05-07T12:48:01;98879.91;;;24.90;52.53
8318;BME280;4196;48.926;8.964;2023-05-07T12:50:51;98892.34;;;25.16;56.44
8318;BME280;4196;48.926;8.964;2023-05-07T12:53:42;98882.13;;;25.10;56.81
8318;BME280;4196;48.926;8.964;2023-05-07T12:56:31;98887.88;;;24.75;57.84
8318;BME280;4196;48.926;8.964;2023-05-07T12:59:17;98907.84;;;24.38;57.93
8318;BME280;4196;48.926;8.964;2023-05-07T13:02:04;98877.47;;;23.86;61.25
8318;BME280;4196;48.926;8.964;2023-05-07T13:04:53;98907.72;;;23.67;62.10
8318;BME280;4196;48.926;8.964;2023-05-07T13:07:40;98884.06;;;23.33;62.23
8318;BME280;4196;48.926;8.964;2023-05-07T13:10:27;98858.22;;;22.93;62.28
8318;BME280;4196;48.926;8.964;2023-05-07T13:13:14;98906.59;;;22.93;63.12
8318;BME280;4196;48.926;8.964;2023-05-07T13:16:01;98908.59;;;22.56;65.04
8318;BME280;4196;48.926;8.964;2023-05-07T13:18:48;98873.56;;;22.04;66.05
8318;BME280;4196;48.926;8.964;2023-05-07T13:21:35;98881.63;;;21.83;65.59
8318;BME280;4196;48.926;8.964;2023-05-07T13:24:21;98905.53;;;21.63;68.12
8318;BME280;4196;48.926;8.964;2023-05-07T13:27:08;98896.63;;;21.29;69.48
8318;BME280;4196;48.926;8.964;2023-05-07T13:29:54;98907.41;;;21.06;69.17
8318;BME280;4196;48.926;8.964;2023-05-07T13:32:41;98931.81;;;20.90;67.55
8318;BME280;4196;48.926;8.964;2023-05-07T13:35:27;98902.97;;;20.70;65.63
8318;BME280;4196;48.926;8.964;2023-05-07T13:38:14;98900.78;;;20.40;67.05
8318;BME280;4196;48.926;8.964;2023-05-07T13:41:01;98880.81;;;19.76;70.49
8318;BME280;4196;48.926;8.964;2023-05-07T13:43:48;98892.38;;;19.50;72.38
8318;BME280;4196;48.926;8.964;2023-05-07T13:46:35;98922.94;;;19.31;85.50
8318;BME280;4196;48.926;8.964;2023-05-07T13:49:21;98891.72;;;18.32;89.47
8318;BME280;4196;48.926;8.964;2023-05-07T13:52:08;98934.88;;;17.99;95.69
8318;BME280;4196;48.926;8.964;2023-05-07T13:54:55;98924.34;;;17.47;100.00
8318;BME280;4196;48.926;8.964;2023-05-07T13:57:42;98948.59;;;17.26;100.00
8318;BME280;4196;48.926;8.964;2023-05-07T14:00:29;98967.41;;;17.10;100.00
8318;BME280;4196;48.926;8.964;2023-05-07T14:03:16;99007.34;;;17.15;100.00
8318;BME280;4196;48.926;8.964;2023-05-07T14:06:04;98997.00;;;17.12;100.00
8318;BME280;4196;48.926;8.964;2023-05-07T14:08:50;98965.47;;;16.87;100.00
8318;BME280;4196;48.926;8.964;2023-05-07T14:11:37;99014.41;;;17.13;100.00
8318;BME280;4196;48.926;8.964;2023-05-07T14:14:23;98997.44;;;16.97;100.00
8318;BME280;4196;48.926;8.964;2023-05-07T14:17:09;98988.97;;;16.89;100.00
8318;BME280;4196;48.926;8.964;2023-05-07T14:19:57;98994.47;;;16.80;100.00
8318;BME280;4196;48.926;8.964;2023-05-07T14:22:43;98985.78;;;16.79;100.00
8318;BME280;4196;48.926;8.964;2023-05-07T14:25:30;98992.66;;;16.82;100.00
8318;BME280;4196;48.926;8.964;2023-05-07T14:28:16;98957.59;;;16.58;100.00
8318;BME280;4196;48.926;8.964;2023-05-07T14:31:02;98992.06;;;16.72;100.00
8318;BME280;4196;48.926;8.964;2023-05-07T14:33:49;98985.38;;;16.60;100.00
8318;BME280;4196;48.926;8.964;2023-05-07T14:36:36;99002.97;;;16.55;100.00
8318;BME280;4196;48.926;8.964;2023-05-07T14:39:23;99020.50;;;16.52;100.00
8318;BME280;4196;48.926;8.964;2023-05-07T14:42:10;99007.94;;;16.33;100.00
8318;BME280;4196;48.926;8.964;2023-05-07T14:44:57;99007.47;;;16.17;100.00
8318;BME280;4196;48.926;8.964;2023-05-07T14:47:43;99003.47;;;16.04;100.00
8318;BME280;4196;48.926;8.964;2023-05-07T14:50:30;99002.53;;;15.73;100.00
8318;BME280;4196;48.926;8.964;2023-05-07T14:53:16;98994.41;;;15.46;100.00
8318;BME280;4196;48.926;8.964;2023-05-07T14:56:03;99020.84;;;15.31;100.00
8318;BME280;4196;48.926;8.964;2023-05-07T14:58:50;99013.44;;;15.14;100.00
8318;BME280;4196;48.926;8.964;2023-05-07T15:01:36;99035.78;;;15.24;100.00
8318;BME280;4196;48.926;8.964;2023-05-07T15:04:23;98992.75;;;15.05;100.00
8318;BME280;4196;48.926;8.964;2023-05-07T15:07:14;99024.31;;;15.33;100.00
8318;BME280;4196;48.926;8.964;2023-05-07T15:10:01;98993.41;;;15.14;100.00
8318;BME280;4196;48.926;8.964;2023-05-07T15:12:48;99002.03;;;15.16;100.00
8318;BME280;4196;48.926;8.964;2023-05-07T15:15:34;98997.84;;;15.11;100.00